Time;durP1;ratioP1;P1;durP2;ratioP2;P2;SDS_P1;SDS_P2;PMS_P1;PMS_P2;Temp;Humidity;BMP_temperature;BMP_pressure;BME280_temperature;BME280_humidity;BME280_pressure;Samples;Min_cycle;Max_cycle;Signal;HPM_P1;HPM_P2
2022/12/02 00:01:00;;;;;;;67.80;30.60;;;;;;;;;;6244430;23;20342;-61
2022/12/02 00:03:26;;;;;;;86.63;33.33;;;;;;;;;;6244758;23;20008;-61
2022/12/02 00:05:56;;;;;;;91.43;37.92;;;;;;;;;;6244818;23;20004;-61
2022/12/02 00:08:23;;;;;;;74.28;30.45;;;;;;;;;;6244363;22;20039;-61
2022/12/02 00:10:51;;;;;;;60.25;27.90;;;;;;;;;;6244860;23;20008;-61
2022/12/02 00:13:23;;;;;;;62.47;29.45;;;;;;;;;;6244551;23;20411;-61
2022/12/02 00:15:55;;;;;;;62.95;26.92;;;;;;;;;;6244610;23;20024;-61
2022/12/02 00:18:21;;;;;;;51.88;26.60;;;;;;;;;;6245051;23;20130;-61
2022/12/02 00:20:48;;;;;;;65.97;28.83;;;;;;;;;;6247219;23;20000;-61
2022/12/02 00:23:14;;;;;;;66.40;27.92;;;;;;;;;;6246977;23;20442;-61
2022/12/02 00:25:42;;;;;;;57.50;25.85;;;;;;;;;;6246070;23;20050;-61
2022/12/02 00:28:09;;;;;;;57.58;28.65;;;;;;;;;;6246531;23;20004;-62
2022/12/02 00:30:35;;;;;;;59.33;27.02;;;;;;;;;;6246605;23;20008;-62
2022/12/02 00:33:01;;;;;;;53.72;25.70;;;;;;;;;;6246386;23;20083;-62
2022/12/02 00:35:27;;;;;;;49.50;25.02;;;;;;;;;;6246707;23;20023;-62
2022/12/02 00:37:53;;;;;;;53.75;25.02;;;;;;;;;;6246782;22;20087;-62
2022/12/02 00:40:20;;;;;;;49.58;25.88;;;;;;;;;;6246541;23;20401;-62
2022/12/02 00:42:46;;;;;;;54.97;26.42;;;;;;;;;;6246348;23;20027;-61
2022/12/02 00:47:58;;;;;;;52.03;25.90;;;;;;;;;;6245354;23;20015;-61
2022/12/02 00:50:24;;;;;;;54.63;25.65;;;;;;;;;;6246260;23;19996;-61
2022/12/02 00:52:52;;;;;;;49.85;24.10;;;;;;;;;;6246278;22;20071;-61
2022/12/02 00:55:18;;;;;;;49.50;25.00;;;;;;;;;;6244826;23;20000;-61
2022/12/02 00:57:44;;;;;;;49.85;24.52;;;;;;;;;;6246592;23;20016;-61
2022/12/02 01:00:10;;;;;;;38.30;20.90;;;;;;;;;;6244262;23;20434;-61
2022/12/02 01:02:37;;;;;;;48.63;23.27;;;;;;;;;;6244865;23;20008;-61
2022/12/02 01:05:04;;;;;;;44.08;21.02;;;;;;;;;;6246479;23;20004;-61
2022/12/02 01:07:30;;;;;;;41.15;20.83;;;;;;;;;;6245758;22;20010;-61
2022/12/02 01:09:56;;;;;;;38.63;20.10;;;;;;;;;;6246396;22;20000;-61
2022/12/02 01:12:23;;;;;;;44.30;18.63;;;;;;;;;;6244584;23;20019;-61
2022/12/02 01:14:49;;;;;;;40.65;18.67;;;;;;;;;;6246375;23;20446;-61
2022/12/02 01:17:15;;;;;;;35.45;16.50;;;;;;;;;;6245916;23;20043;-61
2022/12/02 01:19:41;;;;;;;39.88;20.20;;;;;;;;;;6246143;23;20008;-61
2022/12/02 01:22:07;;;;;;;35.25;18.42;;;;;;;;;;6244459;23;20011;-61
2022/12/02 01:24:33;;;;;;;37.45;20.08;;;;;;;;;;6244338;23;20011;-61
2022/12/02 01:26:59;;;;;;;42.08;18.80;;;;;;;;;;6245911;23;20047;-61
2022/12/02 01:29:25;;;;;;;35.15;17.65;;;;;;;;;;6245842;23;19992;-61
2022/12/02 01:31:54;;;;;;;38.08;17.52;;;;;;;;;;6246079;23;20083;-61
2022/12/02 01:34:20;;;;;;;38.88;17.25;;;;;;;;;;6245300;22;20011;-61
2022/12/02 01:36:46;;;;;;;44.22;20.95;;;;;;;;;;6245831;23;20023;-61
2022/12/02 01:39:13;;;;;;;39.72;17.85;;;;;;;;;;6246190;22;20081;-61
2022/12/02 01:41:39;;;;;;;42.55;19.92;;;;;;;;;;6244238;23;20008;-61
2022/12/02 01:44:08;;;;;;;46.08;20.33;;;;;;;;;;6245984;22;20008;-61
2022/12/02 01:46:34;;;;;;;34.60;18.85;;;;;;;;;;6246109;23;20004;-61
2022/12/02 01:49:00;;;;;;;41.08;18.88;;;;;;;;;;6246014;23;20082;-61
2022/12/02 01:51:26;;;;;;;34.70;19.33;;;;;;;;;;6245146;22;20330;-61
2022/12/02 01:53:52;;;;;;;34.22;17.88;;;;;;;;;;6245979;23;19996;-61
2022/12/02 01:56:19;;;;;;;38.50;19.10;;;;;;;;;;6245951;22;20000;-61
2022/12/02 01:58:45;;;;;;;37.90;18.10;;;;;;;;;;6244185;23;20016;-61
2022/12/02 02:01:25;;;;;;;39.85;19.95;;;;;;;;;;6243763;23;20038;-61
2022/12/02 02:03:51;;;;;;;41.22;17.85;;;;;;;;;;6246015;22;20023;-61
2022/12/02 02:06:17;;;;;;;35.75;17.52;;;;;;;;;;6243771;23;20016;-59
2022/12/02 02:08:44;;;;;;;42.20;16.98;;;;;;;;;;6243591;23;20012;-58
2022/12/02 02:11:10;;;;;;;37.42;17.20;;;;;;;;;;6244183;23;20007;-59
2022/12/02 02:13:36;;;;;;;38.67;18.73;;;;;;;;;;6243496;23;20083;-59
2022/12/02 02:16:03;;;;;;;35.85;17.65;;;;;;;;;;6245217;22;20008;-59
2022/12/02 02:18:29;;;;;;;35.85;17.48;;;;;;;;;;6243555;23;20035;-59
2022/12/02 02:20:57;;;;;;;33.47;15.93;;;;;;;;;;6245568;23;20004;-59
2022/12/02 02:23:24;;;;;;;33.92;16.35;;;;;;;;;;6243692;23;20012;-59
2022/12/02 02:25:53;;;;;;;39.40;17.45;;;;;;;;;;6243423;23;20331;-59
2022/12/02 02:28:23;;;;;;;41.33;18.10;;;;;;;;;;6243949;23;20430;-59
2022/12/02 02:30:51;;;;;;;59.67;19.67;;;;;;;;;;6243775;23;20087;-59
2022/12/02 02:33:17;;;;;;;61.60;22.65;;;;;;;;;;6243472;23;20012;-59
2022/12/02 02:35:44;;;;;;;55.53;20.38;;;;;;;;;;6245059;23;20000;-59
2022/12/02 02:38:13;;;;;;;49.58;20.75;;;;;;;;;;6243957;23;20008;-59
2022/12/02 02:40:39;;;;;;;41.05;18.50;;;;;;;;;;6244932;23;20312;-59
2022/12/02 02:43:06;;;;;;;44.55;19.33;;;;;;;;;;6243696;23;20012;-59
2022/12/02 02:45:34;;;;;;;39.47;18.55;;;;;;;;;;6245277;23;20000;-59
2022/12/02 02:48:03;;;;;;;47.28;19.92;;;;;;;;;;6245618;22;20008;-59
2022/12/02 02:50:31;;;;;;;39.75;19.33;;;;;;;;;;6242612;23;20062;-59
2022/12/02 02:52:58;;;;;;;43.08;19.42;;;;;;;;;;6245489;22;20004;-59
2022/12/02 02:55:25;;;;;;;44.17;18.13;;;;;;;;;;6245253;23;20067;-59
2022/12/02 02:57:52;;;;;;;44.25;18.73;;;;;;;;;;6243412;23;20004;-59
2022/12/02 03:00:19;;;;;;;38.40;17.75;;;;;;;;;;6243391;23;20011;-59
2022/12/02 03:02:47;;;;;;;44.97;18.20;;;;;;;;;;6243519;23;20011;-59
2022/12/02 03:05:15;;;;;;;39.95;18.27;;;;;;;;;;6243268;23;20375;-59
2022/12/02 03:07:41;;;;;;;40.75;19.52;;;;;;;;;;6242972;23;20012;-59
2022/12/02 03:10:08;;;;;;;37.45;18.08;;;;;;;;;;6245385;23;20003;-59
2022/12/02 03:12:35;;;;;;;40.92;19.23;;;;;;;;;;6244875;23;20508;-59
2022/12/02 03:15:02;;;;;;;45.67;18.85;;;;;;;;;;6244863;23;20011;-59
2022/12/02 03:17:28;;;;;;;44.00;20.08;;;;;;;;;;6244958;23;20015;-59
2022/12/02 03:19:54;;;;;;;49.70;20.30;;;;;;;;;;6245035;23;20014;-59
2022/12/02 03:22:20;;;;;;;39.00;18.95;;;;;;;;;;6245303;23;20008;-59
2022/12/02 03:24:46;;;;;;;41.25;18.02;;;;;;;;;;6244605;23;20007;-58
2022/12/02 03:27:13;;;;;;;40.75;18.20;;;;;;;;;;6244760;23;20039;-59
2022/12/02 03:29:39;;;;;;;34.95;17.73;;;;;;;;;;6244975;22;20369;-59
2022/12/02 03:32:09;;;;;;;36.00;17.20;;;;;;;;;;6244840;23;20004;-59
2022/12/02 03:34:36;;;;;;;40.35;19.17;;;;;;;;;;6244572;22;20075;-59
2022/12/02 03:37:02;;;;;;;43.47;20.13;;;;;;;;;;6245162;23;20007;-59
2022/12/02 03:39:28;;;;;;;47.28;19.67;;;;;;;;;;6244923;23;20011;-59
2022/12/02 03:41:55;;;;;;;47.70;18.45;;;;;;;;;;6244812;23;20468;-59
2022/12/02 03:44:21;;;;;;;44.58;18.95;;;;;;;;;;6244954;23;20014;-59
2022/12/02 03:46:47;;;;;;;41.70;18.85;;;;;;;;;;6244506;23;20430;-59
2022/12/02 03:49:14;;;;;;;37.10;17.45;;;;;;;;;;6244605;23;20083;-59
2022/12/02 03:51:40;;;;;;;42.67;16.88;;;;;;;;;;6244599;23;19996;-59
2022/12/02 03:54:07;;;;;;;35.10;16.83;;;;;;;;;;6244626;23;20032;-59
2022/12/02 03:56:39;;;;;;;41.33;17.48;;;;;;;;;;6244550;23;19996;-59
2022/12/02 03:59:06;;;;;;;40.03;18.67;;;;;;;;;;6244551;23;20027;-59
2022/12/02 04:01:32;;;;;;;30.58;15.30;;;;;;;;;;6244300;23;20004;-59
2022/12/02 04:03:58;;;;;;;35.80;15.70;;;;;;;;;;6244863;23;20598;-59
2022/12/02 04:06:24;;;;;;;33.13;16.42;;;;;;;;;;6244552;23;20000;-58
2022/12/02 04:08:50;;;;;;;28.67;15.93;;;;;;;;;;6244717;23;20026;-59
2022/12/02 04:11:17;;;;;;;35.83;18.38;;;;;;;;;;6244934;23;19996;-59
2022/12/02 04:13:43;;;;;;;32.63;15.68;;;;;;;;;;6244537;23;20031;-59
2022/12/02 04:16:09;;;;;;;35.75;17.20;;;;;;;;;;6244055;23;20004;-59
2022/12/02 04:18:35;;;;;;;34.20;15.60;;;;;;;;;;6244651;23;20323;-59
2022/12/02 04:21:01;;;;;;;36.35;16.92;;;;;;;;;;6243106;23;20419;-59
2022/12/02 04:23:27;;;;;;;34.90;15.60;;;;;;;;;;6244448;23;20004;-59
2022/12/02 04:25:53;;;;;;;36.97;17.30;;;;;;;;;;6243737;23;20477;-59
2022/12/02 04:28:19;;;;;;;35.47;16.00;;;;;;;;;;6243554;23;20004;-58
2022/12/02 04:30:45;;;;;;;34.33;16.10;;;;;;;;;;6243082;23;20442;-59
2022/12/02 04:33:11;;;;;;;32.30;14.88;;;;;;;;;;6243355;23;20000;-59
2022/12/02 04:35:37;;;;;;;32.92;15.55;;;;;;;;;;6243775;23;20438;-59
2022/12/02 04:38:04;;;;;;;29.95;14.43;;;;;;;;;;6242962;23;20059;-59
2022/12/02 04:40:30;;;;;;;31.52;14.65;;;;;;;;;;6242938;22;20090;-59
2022/12/02 04:42:56;;;;;;;29.67;15.25;;;;;;;;;;6243493;23;20011;-59
2022/12/02 04:45:22;;;;;;;27.95;14.52;;;;;;;;;;6243432;23;20004;-59
2022/12/02 04:47:48;;;;;;;30.45;14.65;;;;;;;;;;6244064;23;20004;-59
2022/12/02 04:50:14;;;;;;;31.50;14.38;;;;;;;;;;6244483;23;20339;-59
2022/12/02 04:52:40;;;;;;;33.95;15.98;;;;;;;;;;6244597;23;20075;-59
2022/12/02 04:55:07;;;;;;;29.83;14.63;;;;;;;;;;6244498;23;20006;-59
2022/12/02 04:57:33;;;;;;;30.77;14.35;;;;;;;;;;6244582;22;20013;-59
2022/12/02 04:59:59;;;;;;;35.05;14.98;;;;;;;;;;6243967;23;20343;-59
2022/12/02 05:02:25;;;;;;;29.58;17.00;;;;;;;;;;6244523;23;20337;-59
2022/12/02 05:04:51;;;;;;;50.78;18.40;;;;;;;;;;6245127;23;20445;-59
2022/12/02 05:07:18;;;;;;;25.70;14.43;;;;;;;;;;6244330;23;20323;-59
2022/12/02 05:09:44;;;;;;;33.63;14.82;;;;;;;;;;6246264;23;20000;-59
2022/12/02 05:12:10;;;;;;;31.50;15.00;;;;;;;;;;6246302;23;20426;-59
2022/12/02 05:14:36;;;;;;;26.30;14.32;;;;;;;;;;6245835;23;20011;-59
2022/12/02 05:17:02;;;;;;;31.90;14.82;;;;;;;;;;6244732;23;20012;-59
2022/12/02 05:19:28;;;;;;;29.48;15.35;;;;;;;;;;6246382;23;20008;-58
2022/12/02 05:21:54;;;;;;;32.08;14.90;;;;;;;;;;6246024;23;20004;-59
2022/12/02 05:24:20;;;;;;;30.85;14.80;;;;;;;;;;6245718;23;20004;-58
2022/12/02 05:26:46;;;;;;;29.90;13.73;;;;;;;;;;6246240;23;20007;-59
2022/12/02 05:29:12;;;;;;;30.05;13.80;;;;;;;;;;6245704;23;20071;-59
2022/12/02 05:31:39;;;;;;;28.70;13.25;;;;;;;;;;6246152;23;20080;-59
2022/12/02 05:34:05;;;;;;;28.25;13.85;;;;;;;;;;6245734;23;20008;-59
2022/12/02 05:36:31;;;;;;;30.73;13.65;;;;;;;;;;6246044;23;20004;-59
2022/12/02 05:38:57;;;;;;;29.85;13.75;;;;;;;;;;6245940;23;20486;-59
2022/12/02 05:41:23;;;;;;;33.80;14.77;;;;;;;;;;6245897;23;20031;-59
2022/12/02 05:43:49;;;;;;;33.70;15.43;;;;;;;;;;6245768;23;19999;-59
2022/12/02 05:46:17;;;;;;;32.33;14.43;;;;;;;;;;6245761;23;20008;-59
2022/12/02 05:48:43;;;;;;;34.08;14.52;;;;;;;;;;6246025;23;20012;-59
2022/12/02 05:51:12;;;;;;;31.05;14.68;;;;;;;;;;6243711;23;20004;-59
2022/12/02 05:53:40;;;;;;;34.72;15.27;;;;;;;;;;6244045;23;20007;-59
2022/12/02 05:56:09;;;;;;;34.88;16.83;;;;;;;;;;6246074;22;20008;-59
2022/12/02 05:58:35;;;;;;;37.72;15.57;;;;;;;;;;6242892;23;20004;-59
2022/12/02 06:01:02;;;;;;;35.55;15.48;;;;;;;;;;6245334;23;20016;-59
2022/12/02 06:03:28;;;;;;;39.38;17.58;;;;;;;;;;6245840;23;20012;-59
2022/12/02 06:05:54;;;;;;;45.90;20.77;;;;;;;;;;6243942;23;20367;-59
2022/12/02 06:08:27;;;;;;;40.17;19.50;;;;;;;;;;6245113;23;20008;-59
2022/12/02 06:10:59;;;;;;;33.35;15.95;;;;;;;;;;6244005;23;20114;-59
2022/12/02 06:13:26;;;;;;;50.78;17.70;;;;;;;;;;6245652;23;20529;-59
2022/12/02 06:15:53;;;;;;;46.38;20.48;;;;;;;;;;6245345;23;20004;-59
2022/12/02 06:18:22;;;;;;;47.63;21.70;;;;;;;;;;6243870;23;20066;-59
2022/12/02 06:20:52;;;;;;;47.50;20.42;;;;;;;;;;6245864;23;20081;-59
2022/12/02 06:23:22;;;;;;;47.10;20.55;;;;;;;;;;6245189;23;20015;-59
2022/12/02 06:25:50;;;;;;;48.50;19.65;;;;;;;;;;6245927;23;20461;-59
2022/12/02 06:28:28;;;;;;;47.35;20.23;;;;;;;;;;6243381;23;20438;-59
2022/12/02 06:30:55;;;;;;;57.17;20.63;;;;;;;;;;6244586;23;20006;-59
2022/12/02 06:33:29;;;;;;;53.85;21.75;;;;;;;;;;6244078;23;20012;-59
2022/12/02 06:35:56;;;;;;;61.95;22.88;;;;;;;;;;6243724;23;20000;-59
2022/12/02 06:38:30;;;;;;;59.45;23.13;;;;;;;;;;6244018;23;20023;-59
2022/12/02 06:40:59;;;;;;;54.78;21.83;;;;;;;;;;6243557;23;20015;-59
2022/12/02 06:43:33;;;;;;;52.80;22.83;;;;;;;;;;6244033;23;20000;-59
2022/12/02 06:46:00;;;;;;;64.47;24.13;;;;;;;;;;6243753;23;20091;-59
2022/12/02 06:48:27;;;;;;;68.57;24.70;;;;;;;;;;6242360;23;20359;-59
2022/12/02 06:50:54;;;;;;;66.40;26.10;;;;;;;;;;6243910;23;20014;-59
2022/12/02 06:53:25;;;;;;;66.40;25.63;;;;;;;;;;6242608;23;20000;-60
2022/12/02 06:55:59;;;;;;;60.50;24.98;;;;;;;;;;6243639;23;20027;-59
2022/12/02 06:58:27;;;;;;;61.13;22.98;;;;;;;;;;6241528;23;20001;-59
2022/12/02 07:00:53;;;;;;;64.53;24.67;;;;;;;;;;6243892;23;20053;-59
2022/12/02 07:03:29;;;;;;;58.53;22.65;;;;;;;;;;6243176;23;20019;-59
2022/12/02 07:05:58;;;;;;;63.97;24.38;;;;;;;;;;6243552;22;20018;-60
2022/12/02 07:08:25;;;;;;;62.78;24.65;;;;;;;;;;6243315;22;20054;-59
2022/12/02 07:10:51;;;;;;;58.10;24.83;;;;;;;;;;6244007;23;20035;-60
2022/12/02 07:13:19;;;;;;;58.17;25.15;;;;;;;;;;6244286;23;20358;-59
2022/12/02 07:15:45;;;;;;;56.25;23.30;;;;;;;;;;6243947;22;20118;-59
2022/12/02 07:18:18;;;;;;;51.75;23.13;;;;;;;;;;6244944;23;20024;-60
2022/12/02 07:20:45;;;;;;;62.63;26.85;;;;;;;;;;6244872;23;20011;-60
2022/12/02 07:23:14;;;;;;;56.33;25.02;;;;;;;;;;6244686;23;20008;-60
2022/12/02 07:25:46;;;;;;;57.60;25.58;;;;;;;;;;6244339;23;20004;-60
2022/12/02 07:28:24;;;;;;;62.17;25.85;;;;;;;;;;6243230;23;20442;-61
2022/12/02 07:31:14;;;;;;;67.10;25.65;;;;;;;;;;6244691;23;20348;-60
2022/12/02 07:33:40;;;;;;;58.88;23.15;;;;;;;;;;6229027;22;20059;-60
2022/12/02 07:36:06;;;;;;;61.92;24.95;;;;;;;;;;6243270;23;20000;-60
2022/12/02 07:38:32;;;;;;;66.20;25.95;;;;;;;;;;6243428;23;20031;-60
2022/12/02 07:40:58;;;;;;;69.90;26.55;;;;;;;;;;6243214;23;20011;-60
2022/12/02 07:43:24;;;;;;;64.85;26.95;;;;;;;;;;6242474;23;20011;-61
2022/12/02 07:45:50;;;;;;;72.07;29.25;;;;;;;;;;6243382;23;20062;-60
2022/12/02 07:48:16;;;;;;;70.05;28.25;;;;;;;;;;6243572;23;20008;-61
2022/12/02 07:50:42;;;;;;;66.75;29.85;;;;;;;;;;6242382;23;20007;-60
2022/12/02 07:53:09;;;;;;;72.28;29.38;;;;;;;;;;6240733;23;20015;-60
2022/12/02 07:55:35;;;;;;;74.28;31.35;;;;;;;;;;6215297;23;20004;-61
2022/12/02 07:58:01;;;;;;;77.38;31.63;;;;;;;;;;6242696;23;20434;-60
2022/12/02 08:00:27;;;;;;;68.72;30.30;;;;;;;;;;6243906;23;20000;-61
2022/12/02 08:02:55;;;;;;;70.03;29.52;;;;;;;;;;6243790;23;20004;-60
2022/12/02 08:05:21;;;;;;;66.55;28.92;;;;;;;;;;6243862;22;20408;-61
2022/12/02 08:07:47;;;;;;;68.53;30.02;;;;;;;;;;6243193;22;20062;-60
2022/12/02 08:10:13;;;;;;;74.35;31.38;;;;;;;;;;6243843;23;20446;-60
2022/12/02 08:12:41;;;;;;;79.78;34.47;;;;;;;;;;6242224;23;20461;-61
2022/12/02 08:15:08;;;;;;;66.68;29.70;;;;;;;;;;6242802;22;20008;-60
2022/12/02 08:17:34;;;;;;;76.35;31.77;;;;;;;;;;6242248;23;20081;-61
2022/12/02 08:20:00;;;;;;;72.35;30.42;;;;;;;;;;6242426;23;20015;-60
2022/12/02 08:22:27;;;;;;;75.50;31.80;;;;;;;;;;6242531;23;20009;-60
2022/12/02 08:24:54;;;;;;;70.68;28.88;;;;;;;;;;6242759;23;20015;-61
2022/12/02 08:27:21;;;;;;;72.70;30.75;;;;;;;;;;6242683;22;20008;-61
2022/12/02 08:29:48;;;;;;;69.00;29.40;;;;;;;;;;6242138;23;20000;-61
2022/12/02 08:32:15;;;;;;;66.10;28.02;;;;;;;;;;6242581;22;20008;-60
2022/12/02 08:34:41;;;;;;;74.85;28.17;;;;;;;;;;6241852;22;20004;-61
2022/12/02 08:37:08;;;;;;;72.53;28.33;;;;;;;;;;6240536;23;20031;-61
2022/12/02 08:39:34;;;;;;;64.20;27.35;;;;;;;;;;6242130;23;20004;-61
2022/12/02 08:42:00;;;;;;;62.67;27.50;;;;;;;;;;6243628;23;20666;-61
2022/12/02 08:44:26;;;;;;;69.40;31.00;;;;;;;;;;6244126;23;20004;-61
2022/12/02 08:46:52;;;;;;;91.68;37.63;;;;;;;;;;6243483;23;20008;-61
2022/12/02 08:49:18;;;;;;;78.97;33.40;;;;;;;;;;6243386;23;20438;-60
2022/12/02 08:51:45;;;;;;;74.20;31.88;;;;;;;;;;6243150;23;20008;-60
2022/12/02 08:54:11;;;;;;;73.60;31.92;;;;;;;;;;6243927;23;20004;-60
2022/12/02 08:56:37;;;;;;;68.15;31.90;;;;;;;;;;6243998;23;20011;-60
2022/12/02 08:59:03;;;;;;;76.95;30.00;;;;;;;;;;6243462;23;20014;-60
2022/12/02 09:01:29;;;;;;;71.97;27.88;;;;;;;;;;6243993;23;20012;-60
2022/12/02 09:03:55;;;;;;;70.85;27.50;;;;;;;;;;6243506;23;20065;-60
2022/12/02 09:06:22;;;;;;;65.97;26.42;;;;;;;;;;6243927;23;20057;-60
2022/12/02 09:08:49;;;;;;;65.93;27.27;;;;;;;;;;6243998;23;20015;-60
2022/12/02 09:11:15;;;;;;;81.93;31.15;;;;;;;;;;6244030;23;20349;-60
2022/12/02 09:13:41;;;;;;;75.90;33.38;;;;;;;;;;6244196;23;20012;-60
2022/12/02 09:16:07;;;;;;;77.18;31.05;;;;;;;;;;6244214;23;20091;-61
2022/12/02 09:18:33;;;;;;;70.35;28.63;;;;;;;;;;6244301;23;20008;-60
2022/12/02 09:20:59;;;;;;;70.40;29.33;;;;;;;;;;6243472;23;20004;-60
2022/12/02 09:23:27;;;;;;;68.82;31.38;;;;;;;;;;6244184;23;20011;-60
2022/12/02 09:25:54;;;;;;;82.20;33.30;;;;;;;;;;6244909;22;20012;-60
2022/12/02 09:28:22;;;;;;;92.97;35.28;;;;;;;;;;6245210;23;20041;-60
2022/12/02 09:30:48;;;;;;;79.45;31.52;;;;;;;;;;6245504;22;20080;-60
2022/12/02 09:33:14;;;;;;;74.60;28.98;;;;;;;;;;6245258;23;20706;-60
2022/12/02 09:35:41;;;;;;;75.63;30.90;;;;;;;;;;6244506;23;20054;-60
2022/12/02 09:38:07;;;;;;;72.15;30.55;;;;;;;;;;6245030;22;20001;-60
2022/12/02 09:40:34;;;;;;;81.43;33.10;;;;;;;;;;6244739;23;20008;-61
2022/12/02 09:43:01;;;;;;;71.82;31.70;;;;;;;;;;6244958;23;20000;-60
2022/12/02 09:45:27;;;;;;;95.47;42.22;;;;;;;;;;6245449;23;20008;-60
2022/12/02 09:47:54;;;;;;;91.32;38.55;;;;;;;;;;6244315;23;20004;-60
2022/12/02 09:50:21;;;;;;;77.00;32.00;;;;;;;;;;6244011;23;20016;-60
2022/12/02 09:52:47;;;;;;;71.50;31.60;;;;;;;;;;6244222;23;20000;-61
2022/12/02 09:55:14;;;;;;;79.28;29.95;;;;;;;;;;6243954;23;20087;-61
2022/12/02 09:57:41;;;;;;;72.72;30.83;;;;;;;;;;6244055;23;20363;-60
2022/12/02 10:00:13;;;;;;;67.50;31.80;;;;;;;;;;6244472;23;20012;-61
2022/12/02 10:02:52;;;;;;;74.18;33.97;;;;;;;;;;6244559;23;20143;-61
2022/12/02 10:05:21;;;;;;;73.30;30.90;;;;;;;;;;6244121;23;20012;-61
2022/12/02 10:07:48;;;;;;;73.70;30.15;;;;;;;;;;6244189;23;20082;-61
2022/12/02 10:10:17;;;;;;;64.68;29.10;;;;;;;;;;6244626;23;20015;-61
2022/12/02 10:12:44;;;;;;;62.15;28.38;;;;;;;;;;6244365;23;20012;-61
2022/12/02 10:15:14;;;;;;;65.05;28.85;;;;;;;;;;6244452;23;20084;-61
2022/12/02 10:17:41;;;;;;;64.53;28.05;;;;;;;;;;6244548;23;20008;-61
2022/12/02 10:20:07;;;;;;;64.93;26.77;;;;;;;;;;6244198;23;20031;-61
2022/12/02 10:22:53;;;;;;;61.72;27.38;;;;;;;;;;6243926;23;20522;-61
2022/12/02 10:25:29;;;;;;;61.25;25.80;;;;;;;;;;6243939;23;20011;-61
2022/12/02 10:27:55;;;;;;;64.03;27.80;;;;;;;;;;6243808;23;20015;-60
2022/12/02 10:30:24;;;;;;;63.67;27.83;;;;;;;;;;6244516;23;20500;-60
2022/12/02 10:33:07;;;;;;;65.47;26.58;;;;;;;;;;6242389;23;20008;-61
2022/12/02 10:35:33;;;;;;;;;;;;;;;;;;6244902;22;20386;-61
2022/12/02 10:37:59;;;;;;;62.10;26.08;;;;;;;;;;6244248;23;19900;-60
2022/12/02 10:40:25;;;;;;;64.90;28.17;;;;;;;;;;6243905;23;20087;-60
2022/12/02 10:43:06;;;;;;;65.00;28.30;;;;;;;;;;6244699;23;20083;-60
2022/12/02 10:45:32;;;;;;;66.28;27.85;;;;;;;;;;6243969;23;20011;-60
2022/12/02 10:48:12;;;;;;;62.03;26.98;;;;;;;;;;6243925;23;20083;-61
2022/12/02 10:50:38;;;;;;;60.40;25.92;;;;;;;;;;6241889;23;20023;-60
2022/12/02 10:53:06;;;;;;;68.55;27.15;;;;;;;;;;6243900;23;20446;-61
2022/12/02 10:55:32;;;;;;;62.25;28.23;;;;;;;;;;6244366;23;20004;-61
2022/12/02 10:57:58;;;;;;;68.40;28.98;;;;;;;;;;6244263;23;20054;-61
2022/12/02 11:00:25;;;;;;;69.88;30.10;;;;;;;;;;6243820;23;20434;-61
2022/12/02 11:02:53;;;;;;;66.97;30.17;;;;;;;;;;6242910;22;20016;-61
2022/12/02 11:05:21;;;;;;;63.05;28.85;;;;;;;;;;6243987;23;20039;-61
2022/12/02 11:07:51;;;;;;;64.22;28.42;;;;;;;;;;6242747;23;20004;-61
2022/12/02 11:10:19;;;;;;;63.63;26.30;;;;;;;;;;6243196;23;20014;-61
2022/12/02 11:12:48;;;;;;;66.18;27.85;;;;;;;;;;6243759;22;20016;-61
2022/12/02 11:15:33;;;;;;;58.70;26.50;;;;;;;;;;6244297;23;20012;-61
2022/12/02 11:17:59;;;;;;;62.05;26.95;;;;;;;;;;6243770;23;20004;-61
2022/12/02 11:20:29;;;;;;;61.78;26.77;;;;;;;;;;6244288;23;20027;-60
2022/12/02 11:22:58;;;;;;;57.08;26.15;;;;;;;;;;6243459;22;20083;-61
2022/12/02 11:25:42;;;;;;;62.97;27.50;;;;;;;;;;6244257;23;20016;-61
2022/12/02 11:28:18;;;;;;;59.88;27.80;;;;;;;;;;6243948;22;20004;-61
2022/12/02 11:30:45;;;;;;;59.08;25.67;;;;;;;;;;6243066;23;20443;-61
2022/12/02 11:33:34;;;;;;;61.05;26.77;;;;;;;;;;6243839;23;20004;-61
2022/12/02 11:36:06;;;;;;;62.92;27.73;;;;;;;;;;6243367;23;20094;-61
2022/12/02 11:38:43;;;;;;;59.72;26.98;;;;;;;;;;6243550;23;20008;-60
2022/12/02 11:41:09;;;;;;;61.17;25.40;;;;;;;;;;6241997;23;20075;-61
2022/12/02 11:43:47;;;;;;;56.40;26.35;;;;;;;;;;6243868;23;20012;-61
2022/12/02 11:46:15;;;;;;;63.30;25.60;;;;;;;;;;6243900;23;20035;-61
2022/12/02 11:48:50;;;;;;;58.05;26.40;;;;;;;;;;6243828;23;20008;-61
2022/12/02 11:51:28;;;;;;;61.72;27.80;;;;;;;;;;6243600;22;20004;-61
2022/12/02 11:53:54;;;;;;;56.13;24.33;;;;;;;;;;6242962;23;20036;-61
2022/12/02 11:56:20;;;;;;;60.95;26.90;;;;;;;;;;6243774;23;20442;-60
2022/12/02 11:58:47;;;;;;;60.00;25.38;;;;;;;;;;6243785;23;20083;-61
2022/12/02 12:01:14;;;;;;;56.45;27.05;;;;;;;;;;6243123;23;20000;-61
2022/12/02 12:03:41;;;;;;;54.20;25.35;;;;;;;;;;6243386;23;20012;-60
2022/12/02 12:06:07;;;;;;;54.25;25.42;;;;;;;;;;6243236;23;20012;-61
2022/12/02 12:08:33;;;;;;;56.20;26.60;;;;;;;;;;6243792;23;20008;-61
2022/12/02 12:11:18;;;;;;;57.97;28.45;;;;;;;;;;6243339;23;20007;-60
2022/12/02 12:13:56;;;;;;;60.00;28.42;;;;;;;;;;6244055;23;20008;-61
2022/12/02 12:16:25;;;;;;;69.13;27.50;;;;;;;;;;6245578;23;20055;-61
2022/12/02 12:18:52;;;;;;;56.42;27.30;;;;;;;;;;6245365;23;20004;-61
2022/12/02 12:21:30;;;;;;;52.78;25.90;;;;;;;;;;6245599;23;20008;-61
2022/12/02 12:24:14;;;;;;;55.67;25.50;;;;;;;;;;6245862;22;20450;-61
2022/12/02 12:26:40;;;;;;;58.75;26.85;;;;;;;;;;6246250;23;20012;-61
2022/12/02 12:29:06;;;;;;;58.72;25.98;;;;;;;;;;6243575;23;20323;-61
2022/12/02 12:31:32;;;;;;;60.47;26.88;;;;;;;;;;6245876;23;20000;-61
2022/12/02 12:33:59;;;;;;;57.83;28.45;;;;;;;;;;6244227;23;20004;-61
2022/12/02 12:36:25;;;;;;;59.22;27.25;;;;;;;;;;6245391;23;20008;-61
2022/12/02 12:38:51;;;;;;;79.22;32.78;;;;;;;;;;6245526;23;20000;-61
2022/12/02 12:41:17;;;;;;;86.15;35.95;;;;;;;;;;6245502;23;20087;-61
2022/12/02 12:43:43;;;;;;;63.88;29.33;;;;;;;;;;6245367;23;20004;-61
2022/12/02 12:46:09;;;;;;;63.22;27.38;;;;;;;;;;6245818;23;20008;-61
2022/12/02 12:48:35;;;;;;;61.60;28.58;;;;;;;;;;6244259;23;20015;-61
2022/12/02 12:51:01;;;;;;;60.75;27.73;;;;;;;;;;6243640;23;20004;-61
2022/12/02 12:53:27;;;;;;;61.47;28.75;;;;;;;;;;6245675;23;20087;-61
2022/12/02 12:55:53;;;;;;;73.38;32.58;;;;;;;;;;6244801;23;20341;-61
2022/12/02 12:58:19;;;;;;;64.78;30.92;;;;;;;;;;6244992;23;20008;-61
2022/12/02 13:00:46;;;;;;;63.10;29.83;;;;;;;;;;6244213;23;20012;-61
2022/12/02 13:03:12;;;;;;;58.53;27.85;;;;;;;;;;6244582;23;20031;-61
2022/12/02 13:05:38;;;;;;;60.80;28.83;;;;;;;;;;6245602;23;20008;-61
2022/12/02 13:08:04;;;;;;;63.45;28.23;;;;;;;;;;6245170;23;20007;-61
2022/12/02 13:10:30;;;;;;;59.80;27.92;;;;;;;;;;6245493;23;20004;-61
2022/12/02 13:12:56;;;;;;;63.28;28.20;;;;;;;;;;6245037;23;20012;-61
2022/12/02 13:15:22;;;;;;;59.88;27.50;;;;;;;;;;6245558;23;20020;-61
2022/12/02 13:17:48;;;;;;;66.18;29.58;;;;;;;;;;6245527;23;20000;-61
2022/12/02 13:20:15;;;;;;;66.72;31.27;;;;;;;;;;6245345;23;20012;-61
2022/12/02 13:22:41;;;;;;;61.83;29.50;;;;;;;;;;6245714;23;20011;-61
2022/12/02 13:25:09;;;;;;;65.18;30.02;;;;;;;;;;6245520;23;20047;-61
2022/12/02 13:27:36;;;;;;;59.63;26.88;;;;;;;;;;6244938;23;20004;-61
2022/12/02 13:30:02;;;;;;;60.70;28.65;;;;;;;;;;6245444;23;20011;-61
2022/12/02 13:32:28;;;;;;;61.28;27.75;;;;;;;;;;6244725;23;20011;-61
2022/12/02 13:34:54;;;;;;;60.35;28.55;;;;;;;;;;6245514;23;20000;-61
2022/12/02 13:37:20;;;;;;;59.15;27.42;;;;;;;;;;6245288;23;20374;-62
2022/12/02 13:39:46;;;;;;;56.38;27.02;;;;;;;;;;6245394;23;20062;-61
2022/12/02 13:42:12;;;;;;;64.50;26.77;;;;;;;;;;6244817;23;20454;-61
2022/12/02 13:44:38;;;;;;;59.67;28.70;;;;;;;;;;6245215;23;20039;-61
2022/12/02 13:47:05;;;;;;;54.58;26.80;;;;;;;;;;6245356;23;20612;-61
2022/12/02 13:49:31;;;;;;;56.40;25.02;;;;;;;;;;6245214;23;20039;-61
2022/12/02 13:51:57;;;;;;;57.25;26.60;;;;;;;;;;6245285;23;20000;-61
2022/12/02 13:54:23;;;;;;;60.47;27.50;;;;;;;;;;6244994;23;20083;-61
2022/12/02 13:56:50;;;;;;;61.85;28.30;;;;;;;;;;6245130;23;20067;-61
2022/12/02 13:59:16;;;;;;;62.50;28.27;;;;;;;;;;6244874;23;20338;-62
2022/12/02 14:01:42;;;;;;;56.15;26.50;;;;;;;;;;6243652;23;20381;-61
2022/12/02 14:04:08;;;;;;;59.30;27.77;;;;;;;;;;6245288;23;20008;-61
2022/12/02 14:06:34;;;;;;;64.18;28.73;;;;;;;;;;6245005;23;20004;-61
2022/12/02 14:09:01;;;;;;;61.70;26.60;;;;;;;;;;6245218;23;20004;-61
2022/12/02 14:11:27;;;;;;;59.63;27.50;;;;;;;;;;6243482;23;20419;-61
2022/12/02 14:13:53;;;;;;;63.58;26.70;;;;;;;;;;6244868;23;20019;-61
2022/12/02 14:16:20;;;;;;;56.00;25.73;;;;;;;;;;6244855;23;20008;-61
2022/12/02 14:18:46;;;;;;;54.22;25.95;;;;;;;;;;6245541;22;20005;-61
2022/12/02 14:21:12;;;;;;;57.25;26.17;;;;;;;;;;6245078;23;20008;-61
2022/12/02 14:23:38;;;;;;;63.60;28.35;;;;;;;;;;6245158;23;20031;-61